createdAt,value
2018-02-14T00:00:01.824Z,994.6
2018-02-14T00:00:22.667Z,994.5
2018-02-14T00:00:43.073Z,994.6
2018-02-14T00:01:03.519Z,994.6
2018-02-14T00:01:23.978Z,994.6
2018-02-14T00:01:44.462Z,994.6
2018-02-14T00:02:05.113Z,994.6
2018-02-14T00:02:25.776Z,994.6
2018-02-14T00:02:46.045Z,994.6
2018-02-14T00:03:06.840Z,994.6
2018-02-14T00:03:27.943Z,994.6
2018-02-14T00:03:48.520Z,994.6
2018-02-14T00:04:09.019Z,994.6
2018-02-14T00:04:29.513Z,994.6
2018-02-14T00:04:50.218Z,994.6
2018-02-14T00:05:10.962Z,994.6
2018-02-14T00:05:31.503Z,994.6
2018-02-14T00:05:52.125Z,994.6
2018-02-14T00:06:12.639Z,994.6
2018-02-14T00:06:33.518Z,994.6
2018-02-14T00:06:54.235Z,994.6
2018-02-14T00:07:15.141Z,994.6
2018-02-14T00:07:35.580Z,994.6
2018-02-14T00:07:55.965Z,994.6
2018-02-14T00:08:16.664Z,994.6
2018-02-14T00:08:36.993Z,994.6
2018-02-14T00:08:57.636Z,994.6
2018-02-14T00:09:17.977Z,994.6
2018-02-14T00:09:38.630Z,994.6
2018-02-14T00:09:59.187Z,994.6
2018-02-14T00:10:19.775Z,994.6
2018-02-14T00:10:40.266Z,994.6
2018-02-14T00:11:00.568Z,994.6
2018-02-14T00:11:21.681Z,994.6
2018-02-14T00:11:42.037Z,994.6
2018-02-14T00:12:03.211Z,994.6
2018-02-14T00:12:23.837Z,994.5
2018-02-14T00:12:44.245Z,994.6
2018-02-14T00:13:04.653Z,994.6
2018-02-14T00:13:25.099Z,994.6
2018-02-14T00:13:45.422Z,994.6
2018-02-14T00:14:05.892Z,994.6
2018-02-14T00:14:26.300Z,994.6
2018-02-14T00:14:46.645Z,994.6
2018-02-14T00:15:07.309Z,994.6
2018-02-14T00:15:27.788Z,994.6
2018-02-14T00:15:48.242Z,994.6
2018-02-14T00:16:08.714Z,994.6
2018-02-14T00:16:29.208Z,994.6
2018-02-14T00:16:49.675Z,994.6
2018-02-14T00:17:10.164Z,994.6
2018-02-14T00:17:30.516Z,994.6
2018-02-14T00:17:50.986Z,994.6
2018-02-14T00:18:11.374Z,994.6
2018-02-14T00:18:31.874Z,994.6
2018-02-14T00:18:52.179Z,994.6
2018-02-14T00:19:12.588Z,994.6
2018-02-14T00:19:33.111Z,994.6
2018-02-14T00:19:53.521Z,994.6
2018-02-14T00:20:13.861Z,994.6
2018-02-14T00:20:34.266Z,994.6
2018-02-14T00:20:54.584Z,994.6
2018-02-14T00:21:15.092Z,994.6
2018-02-14T00:21:35.432Z,994.6
2018-02-14T00:21:55.826Z,994.6
2018-02-14T00:22:16.126Z,994.6
2018-02-14T00:22:36.462Z,994.6
2018-02-14T00:22:56.905Z,994.6
2018-02-14T00:23:17.275Z,994.6
2018-02-14T00:23:37.610Z,994.6
2018-02-14T00:23:57.915Z,994.6
2018-02-14T00:24:18.343Z,994.6
2018-02-14T00:24:38.693Z,994.6
2018-02-14T00:24:58.983Z,994.6
2018-02-14T00:25:19.328Z,994.6
2018-02-14T00:25:39.682Z,994.6
2018-02-14T00:26:00.040Z,994.6
2018-02-14T00:26:20.415Z,994.6
2018-02-14T00:26:40.848Z,994.6
2018-02-14T00:27:01.182Z,994.6
2018-02-14T00:27:22.166Z,994.6
2018-02-14T00:27:42.659Z,994.6
2018-02-14T00:28:03.128Z,994.6
2018-02-14T00:28:23.494Z,994.6
2018-02-14T00:28:43.985Z,994.6
2018-02-14T00:29:04.562Z,994.6
2018-02-14T00:29:24.952Z,994.6
2018-02-14T00:29:45.333Z,994.7
2018-02-14T00:30:05.678Z,994.6
2018-02-14T00:30:26.089Z,994.7
2018-02-14T00:30:46.474Z,994.6
2018-02-14T00:31:06.827Z,994.6
2018-02-14T00:31:27.323Z,994.7
2018-02-14T00:31:47.865Z,994.7
2018-02-14T00:32:08.225Z,994.7
2018-02-14T00:32:28.759Z,994.6
2018-02-14T00:32:49.064Z,994.7
2018-02-14T00:33:09.550Z,994.7
2018-02-14T00:33:29.926Z,994.7
2018-02-14T00:33:50.325Z,994.7
2018-02-14T00:34:10.805Z,994.7
2018-02-14T00:34:31.106Z,994.7
2018-02-14T00:34:51.451Z,994.7
2018-02-14T00:35:11.760Z,994.7
2018-02-14T00:35:32.079Z,994.7
2018-02-14T00:35:52.668Z,994.6
2018-02-14T00:36:13.068Z,994.7
2018-02-14T00:36:33.393Z,994.7
2018-02-14T00:36:53.746Z,994.7
2018-02-14T00:37:14.075Z,994.7
2018-02-14T00:37:34.367Z,994.7
2018-02-14T00:37:54.607Z,994.7
2018-02-14T00:38:15.205Z,994.7
2018-02-14T00:38:35.634Z,994.7
2018-02-14T00:38:56.005Z,994.7
2018-02-14T00:39:16.370Z,994.7
2018-02-14T00:39:36.754Z,994.7
2018-02-14T00:39:57.187Z,994.7
2018-02-14T00:40:17.765Z,994.7
2018-02-14T00:40:38.161Z,994.7
2018-02-14T00:40:58.484Z,994.7
2018-02-14T00:41:18.879Z,994.7
2018-02-14T00:41:39.266Z,994.7
2018-02-14T00:41:59.525Z,994.7
2018-02-14T00:42:19.920Z,994.7
2018-02-14T00:42:40.383Z,994.7
2018-02-14T00:43:00.810Z,994.7
2018-02-14T00:43:21.265Z,994.7
2018-02-14T00:43:41.673Z,994.7
2018-02-14T00:44:02.109Z,994.7
2018-02-14T00:44:22.369Z,994.7
2018-02-14T00:44:42.743Z,994.7
2018-02-14T00:45:04.222Z,994.7
2018-02-14T00:45:24.751Z,994.7
2018-02-14T00:45:45.146Z,994.7
2018-02-14T00:46:05.547Z,994.6
2018-02-14T00:46:25.837Z,994.7
2018-02-14T00:46:46.102Z,994.7
2018-02-14T00:47:06.394Z,994.7
2018-02-14T00:47:26.740Z,994.7
2018-02-14T00:47:47.008Z,994.7
2018-02-14T00:48:07.324Z,994.7
2018-02-14T00:48:27.680Z,994.7
2018-02-14T00:48:48.104Z,994.7
2018-02-14T00:49:08.410Z,994.7
2018-02-14T00:49:28.732Z,994.7
2018-02-14T00:49:49.077Z,994.7
2018-02-14T00:50:09.404Z,994.7
2018-02-14T00:50:29.739Z,994.7
2018-02-14T00:50:50.149Z,994.7
2018-02-14T00:51:10.619Z,994.7
2018-02-14T00:51:31.035Z,994.7
2018-02-14T00:51:51.432Z,994.7
2018-02-14T00:52:11.976Z,994.7
2018-02-14T00:52:32.320Z,994.8
2018-02-14T00:52:52.806Z,994.8
2018-02-14T00:53:13.298Z,994.8
2018-02-14T00:53:33.605Z,994.8
2018-02-14T00:53:54.005Z,994.8
2018-02-14T00:54:14.494Z,994.7
2018-02-14T00:54:35.041Z,994.8
2018-02-14T00:54:55.432Z,994.8
2018-02-14T00:55:16.075Z,994.8
2018-02-14T00:55:36.398Z,994.8
2018-02-14T00:55:56.747Z,994.8
2018-02-14T00:56:17.359Z,994.8
2018-02-14T00:56:38.759Z,994.8
2018-02-14T00:56:59.197Z,994.8
2018-02-14T00:57:19.684Z,994.8
2018-02-14T00:57:40.011Z,994.7
2018-02-14T00:58:00.332Z,994.7
2018-02-14T00:58:20.666Z,994.8
2018-02-14T00:58:40.936Z,994.8
2018-02-14T00:59:01.286Z,994.8
2018-02-14T00:59:21.396Z,994.8
2018-02-14T00:59:41.605Z,994.8
2018-02-14T01:00:01.878Z,994.8
2018-02-14T01:00:22.358Z,994.8
2018-02-14T01:00:42.904Z,994.8
2018-02-14T01:01:03.209Z,994.8
2018-02-14T01:01:23.521Z,994.8
2018-02-14T01:01:43.976Z,994.8
2018-02-14T01:02:04.341Z,994.8
2018-02-14T01:02:24.707Z,994.8
2018-02-14T01:02:45.081Z,994.8
2018-02-14T01:03:05.456Z,994.8
2018-02-14T01:03:25.798Z,994.8
2018-02-14T01:03:46.124Z,994.8
2018-02-14T01:04:06.521Z,994.8
2018-02-14T01:04:26.922Z,994.8
2018-02-14T01:04:47.269Z,994.8
2018-02-14T01:05:07.626Z,994.8
2018-02-14T01:05:27.892Z,994.8
2018-02-14T01:05:48.318Z,994.8
2018-02-14T01:06:08.679Z,994.8
2018-02-14T01:06:29.104Z,994.8
2018-02-14T01:06:49.477Z,994.8
2018-02-14T01:07:09.870Z,994.8
2018-02-14T01:07:30.243Z,994.8
2018-02-14T01:07:51.169Z,994.8
2018-02-14T01:08:11.460Z,994.8
2018-02-14T01:08:31.756Z,994.8
2018-02-14T01:08:52.122Z,994.8
2018-02-14T01:09:12.542Z,994.8
2018-02-14T01:09:32.982Z,994.8
2018-02-14T01:09:53.527Z,994.8
2018-02-14T01:10:13.966Z,994.8
2018-02-14T01:10:34.212Z,994.8
2018-02-14T01:10:54.540Z,994.8
2018-02-14T01:11:14.898Z,994.8
2018-02-14T01:11:35.120Z,994.8
2018-02-14T01:11:55.484Z,994.8
2018-02-14T01:12:15.789Z,994.8
2018-02-14T01:12:36.070Z,994.8
2018-02-14T01:12:56.387Z,994.8
2018-02-14T01:13:16.694Z,994.8
2018-02-14T01:13:37.008Z,994.8
2018-02-14T01:13:57.402Z,994.8
2018-02-14T01:14:17.575Z,994.8
2018-02-14T01:14:37.904Z,994.8
2018-02-14T01:14:58.153Z,994.8
2018-02-14T01:15:18.517Z,994.8
2018-02-14T01:15:38.867Z,994.8
2018-02-14T01:15:59.246Z,994.8
2018-02-14T01:16:19.544Z,994.8
2018-02-14T01:16:39.892Z,994.8
2018-02-14T01:17:00.291Z,994.8
2018-02-14T01:17:20.588Z,994.8
2018-02-14T01:17:40.870Z,994.8
2018-02-14T01:18:01.205Z,994.8
2018-02-14T01:18:21.500Z,994.9
2018-02-14T01:18:41.882Z,994.8
2018-02-14T01:19:02.175Z,994.9
2018-02-14T01:19:22.491Z,994.8
2018-02-14T01:19:42.745Z,994.8
2018-02-14T01:20:03.042Z,994.9
2018-02-14T01:20:23.404Z,994.9
2018-02-14T01:20:43.772Z,994.9
2018-02-14T01:21:04.026Z,994.9
2018-02-14T01:21:24.294Z,994.9
2018-02-14T01:21:44.603Z,994.9
2018-02-14T01:22:04.939Z,994.9
2018-02-14T01:22:25.236Z,994.9
2018-02-14T01:22:45.610Z,994.9
2018-02-14T01:23:05.952Z,994.9
2018-02-14T01:23:26.301Z,994.9
2018-02-14T01:23:46.596Z,994.8
2018-02-14T01:24:06.872Z,994.9
2018-02-14T01:24:27.185Z,994.9
2018-02-14T01:24:47.583Z,994.9
2018-02-14T01:25:07.877Z,994.9
2018-02-14T01:25:28.193Z,994.9
2018-02-14T01:25:48.578Z,994.9
2018-02-14T01:26:08.932Z,994.9
2018-02-14T01:26:29.343Z,994.9
2018-02-14T01:26:49.759Z,994.8
2018-02-14T01:27:10.082Z,994.8
2018-02-14T01:27:30.431Z,994.9
2018-02-14T01:27:50.759Z,994.9
2018-02-14T01:28:11.114Z,994.8
2018-02-14T01:28:31.431Z,994.9
2018-02-14T01:28:51.756Z,994.9
2018-02-14T01:29:12.098Z,994.9
2018-02-14T01:29:32.394Z,994.9
2018-02-14T01:29:52.655Z,994.9
2018-02-14T01:30:13.015Z,994.9
2018-02-14T01:30:33.070Z,994.9
2018-02-14T01:30:53.143Z,994.9
2018-02-14T01:31:13.622Z,994.9
2018-02-14T01:31:34.135Z,994.8
2018-02-14T01:31:54.459Z,994.8
2018-02-14T01:32:15.003Z,994.8
2018-02-14T01:32:35.314Z,994.8
2018-02-14T01:32:56.200Z,994.8
2018-02-14T01:33:16.688Z,994.8
2018-02-14T01:33:37.043Z,994.9
2018-02-14T01:33:57.454Z,994.8
2018-02-14T01:34:17.570Z,994.8
2018-02-14T01:34:38.033Z,994.8
2018-02-14T01:34:58.448Z,994.8
2018-02-14T01:35:18.797Z,994.8
2018-02-14T01:35:39.225Z,994.8
2018-02-14T01:35:59.574Z,994.8
2018-02-14T01:36:19.930Z,994.8
2018-02-14T01:36:40.265Z,994.8
2018-02-14T01:37:00.671Z,994.8
2018-02-14T01:37:20.971Z,994.9
2018-02-14T01:37:41.284Z,994.9
2018-02-14T01:38:01.590Z,994.9
2018-02-14T01:38:21.833Z,994.8
2018-02-14T01:38:42.083Z,994.9
2018-02-14T01:39:02.471Z,994.8
2018-02-14T01:39:22.749Z,994.8
2018-02-14T01:39:43.066Z,994.8
2018-02-14T01:40:03.393Z,994.8
2018-02-14T01:40:23.691Z,994.8
2018-02-14T01:40:44.008Z,994.8
2018-02-14T01:41:04.218Z,994.8
2018-02-14T01:41:24.529Z,994.8
2018-02-14T01:41:44.806Z,994.8
2018-02-14T01:42:05.025Z,994.9
2018-02-14T01:42:25.322Z,994.8
2018-02-14T01:42:45.654Z,994.8
2018-02-14T01:43:05.956Z,994.9
2018-02-14T01:43:26.258Z,994.8
2018-02-14T01:43:46.553Z,994.8
2018-02-14T01:44:06.810Z,994.8
2018-02-14T01:44:27.067Z,994.8
2018-02-14T01:44:47.502Z,994.9
2018-02-14T01:45:07.774Z,994.8
2018-02-14T01:45:28.031Z,994.8
2018-02-14T01:45:48.290Z,994.8
2018-02-14T01:46:08.576Z,994.8
2018-02-14T01:46:28.864Z,994.8
2018-02-14T01:46:49.121Z,994.8
2018-02-14T01:47:09.518Z,994.8
2018-02-14T01:47:29.954Z,994.8
2018-02-14T01:47:50.338Z,994.8
2018-02-14T01:48:10.613Z,994.8
2018-02-14T01:48:30.963Z,994.8
2018-02-14T01:48:51.175Z,994.8
2018-02-14T01:49:11.435Z,994.8
2018-02-14T01:49:31.712Z,994.9
2018-02-14T01:49:52.001Z,994.8
2018-02-14T01:50:12.293Z,994.9
2018-02-14T01:50:32.657Z,994.9
2018-02-14T01:50:52.947Z,994.9
2018-02-14T01:51:13.203Z,994.9
2018-02-14T01:51:33.528Z,994.9
2018-02-14T01:51:53.978Z,994.8
2018-02-14T01:52:14.264Z,994.9
2018-02-14T01:52:34.581Z,994.9
2018-02-14T01:52:54.856Z,994.9
2018-02-14T01:53:15.197Z,994.9
2018-02-14T01:53:35.532Z,994.8
2018-02-14T01:53:55.841Z,994.8
2018-02-14T01:54:17.143Z,994.8
2018-02-14T01:54:37.627Z,994.9
2018-02-14T01:54:57.856Z,994.9
2018-02-14T01:55:18.221Z,994.9
2018-02-14T01:55:38.589Z,994.9
2018-02-14T01:55:58.854Z,994.9
2018-02-14T01:56:19.270Z,994.9
2018-02-14T01:56:39.588Z,994.9
2018-02-14T01:56:59.907Z,994.9
2018-02-14T01:57:20.217Z,994.9
2018-02-14T01:57:40.541Z,994.9
2018-02-14T01:58:00.780Z,994.9
2018-02-14T01:58:21.036Z,994.9
2018-02-14T01:58:41.379Z,994.9
2018-02-14T01:59:01.655Z,994.9
2018-02-14T01:59:21.993Z,994.9
2018-02-14T01:59:42.286Z,994.9
2018-02-14T02:00:02.606Z,994.9
2018-02-14T02:00:22.876Z,994.9
2018-02-14T02:00:43.162Z,994.9
2018-02-14T02:01:03.434Z,994.9
2018-02-14T02:01:23.665Z,994.9
2018-02-14T02:01:43.956Z,994.9
2018-02-14T02:02:04.277Z,994.9
2018-02-14T02:02:24.548Z,994.9
2018-02-14T02:02:44.789Z,994.9
2018-02-14T02:03:05.048Z,994.9
2018-02-14T02:03:25.294Z,994.9
2018-02-14T02:03:45.526Z,994.9
2018-02-14T02:04:05.829Z,994.9
2018-02-14T02:04:26.121Z,994.9
2018-02-14T02:04:46.359Z,994.9
2018-02-14T02:05:06.581Z,994.9
2018-02-14T02:05:26.888Z,994.9
2018-02-14T02:05:47.240Z,995
2018-02-14T02:06:07.492Z,994.9
2018-02-14T02:06:27.731Z,994.9
2018-02-14T02:06:48.099Z,994.9
2018-02-14T02:07:08.421Z,994.9
2018-02-14T02:07:28.718Z,994.9
2018-02-14T02:07:48.955Z,994.9
2018-02-14T02:08:09.212Z,994.9
2018-02-14T02:08:29.468Z,994.9
2018-02-14T02:08:49.836Z,995
2018-02-14T02:09:10.200Z,994.9
2018-02-14T02:09:30.541Z,995
2018-02-14T02:09:50.829Z,995
2018-02-14T02:10:11.109Z,994.9
2018-02-14T02:10:31.364Z,994.9
2018-02-14T02:10:51.659Z,995
2018-02-14T02:11:11.704Z,994.9
2018-02-14T02:11:32.150Z,995
2018-02-14T02:11:52.235Z,994.9
2018-02-14T02:12:12.538Z,995
2018-02-14T02:12:32.831Z,995
2018-02-14T02:12:53.161Z,995
2018-02-14T02:13:13.473Z,995
2018-02-14T02:13:33.759Z,995
2018-02-14T02:13:54.051Z,995
2018-02-14T02:14:14.282Z,995
2018-02-14T02:14:34.574Z,995
2018-02-14T02:14:54.783Z,995
2018-02-14T02:15:15.071Z,995
2018-02-14T02:15:35.410Z,995
2018-02-14T02:15:55.737Z,995
2018-02-14T02:16:16.083Z,995
2018-02-14T02:16:36.388Z,995
2018-02-14T02:16:56.628Z,995
2018-02-14T02:17:16.903Z,995
2018-02-14T02:17:37.198Z,995
2018-02-14T02:17:57.428Z,995
2018-02-14T02:18:17.810Z,995
2018-02-14T02:18:38.097Z,994.9
2018-02-14T02:18:58.417Z,995
2018-02-14T02:19:18.649Z,995
2018-02-14T02:19:38.948Z,995
2018-02-14T02:19:59.198Z,995
2018-02-14T02:20:19.423Z,995
2018-02-14T02:20:39.742Z,994.9
2018-02-14T02:20:59.985Z,995
2018-02-14T02:21:20.315Z,995
2018-02-14T02:21:40.598Z,995
2018-02-14T02:22:00.831Z,995
2018-02-14T02:22:21.123Z,995
2018-02-14T02:22:41.365Z,995
2018-02-14T02:23:01.646Z,995
2018-02-14T02:23:21.943Z,995
2018-02-14T02:23:42.162Z,995
2018-02-14T02:24:02.421Z,995
2018-02-14T02:24:22.666Z,994.9
2018-02-14T02:24:43.014Z,995
2018-02-14T02:25:03.342Z,994.9
2018-02-14T02:25:23.577Z,995
2018-02-14T02:25:43.889Z,995
2018-02-14T02:26:04.185Z,994.9
2018-02-14T02:26:24.479Z,995
2018-02-14T02:26:44.800Z,994.9
2018-02-14T02:27:05.057Z,995
2018-02-14T02:27:25.346Z,995
2018-02-14T02:27:45.650Z,994.9
2018-02-14T02:28:05.895Z,994.9
2018-02-14T02:28:26.206Z,995
2018-02-14T02:28:46.445Z,995
2018-02-14T02:29:06.784Z,994.9
2018-02-14T02:29:27.103Z,994.9
2018-02-14T02:29:47.409Z,995
2018-02-14T02:30:07.709Z,994.9
2018-02-14T02:30:27.994Z,994.9
2018-02-14T02:30:48.330Z,995
2018-02-14T02:31:08.703Z,995
2018-02-14T02:31:29.058Z,995
2018-02-14T02:31:49.421Z,995
2018-02-14T02:32:09.696Z,995
2018-02-14T02:32:29.930Z,995
2018-02-14T02:32:50.206Z,995
2018-02-14T02:33:10.569Z,995
2018-02-14T02:33:30.861Z,995
2018-02-14T02:33:51.114Z,995
2018-02-14T02:34:11.487Z,995.1
2018-02-14T02:34:31.786Z,995
2018-02-14T02:34:52.113Z,995
2018-02-14T02:35:12.400Z,995
2018-02-14T02:35:32.675Z,995
2018-02-14T02:35:52.972Z,995
2018-02-14T02:36:13.265Z,995
2018-02-14T02:36:33.621Z,995
2018-02-14T02:36:53.945Z,995
2018-02-14T02:37:14.200Z,995
2018-02-14T02:37:34.530Z,995
2018-02-14T02:37:54.842Z,995
2018-02-14T02:38:15.137Z,995
2018-02-14T02:38:35.351Z,995
2018-02-14T02:38:55.652Z,995
2018-02-14T02:39:15.973Z,995
2018-02-14T02:39:36.250Z,995
2018-02-14T02:39:56.549Z,995
2018-02-14T02:40:16.851Z,995
2018-02-14T02:40:37.153Z,995
2018-02-14T02:40:57.490Z,995
2018-02-14T02:41:17.858Z,995
2018-02-14T02:41:38.153Z,995
2018-02-14T02:41:58.415Z,995
2018-02-14T02:42:18.712Z,995
2018-02-14T02:42:39.033Z,995
2018-02-14T02:42:59.306Z,995
2018-02-14T02:43:19.672Z,995
2018-02-14T02:43:40.003Z,995
2018-02-14T02:44:00.273Z,995
2018-02-14T02:44:20.572Z,995
2018-02-14T02:44:40.899Z,995
2018-02-14T02:45:01.114Z,995
2018-02-14T02:45:21.384Z,995
2018-02-14T02:45:41.640Z,995
2018-02-14T02:46:01.864Z,995
2018-02-14T02:46:22.112Z,995
2018-02-14T02:46:42.397Z,995
2018-02-14T02:47:02.641Z,995
2018-02-14T02:47:22.930Z,995
2018-02-14T02:47:43.168Z,995
2018-02-14T02:48:03.449Z,995
2018-02-14T02:48:23.693Z,995
2018-02-14T02:48:43.951Z,995
2018-02-14T02:49:04.198Z,995
2018-02-14T02:49:24.436Z,995
2018-02-14T02:49:44.775Z,995.1
2018-02-14T02:50:05.070Z,995
2018-02-14T02:50:25.324Z,995
2018-02-14T02:50:45.593Z,995
2018-02-14T02:51:05.861Z,995.1
2018-02-14T02:51:26.106Z,995
2018-02-14T02:51:46.350Z,995
2018-02-14T02:52:06.680Z,995
2018-02-14T02:52:27.063Z,995
2018-02-14T02:52:47.427Z,995
2018-02-14T02:53:07.746Z,995
2018-02-14T02:53:28.045Z,995
2018-02-14T02:53:48.346Z,995
2018-02-14T02:54:08.665Z,995
2018-02-14T02:54:28.941Z,995
2018-02-14T02:54:49.232Z,995
2018-02-14T02:55:09.564Z,995
2018-02-14T02:55:29.846Z,995
2018-02-14T02:55:50.085Z,995
2018-02-14T02:56:10.382Z,995
2018-02-14T02:56:30.696Z,995
2018-02-14T02:56:50.945Z,995
2018-02-14T02:57:11.302Z,995
2018-02-14T02:57:31.597Z,995
2018-02-14T02:57:51.872Z,995
2018-02-14T02:58:12.209Z,995
2018-02-14T02:58:32.473Z,995
2018-02-14T02:58:52.870Z,995
2018-02-14T02:59:13.181Z,995
2018-02-14T02:59:33.427Z,995
2018-02-14T02:59:53.681Z,995
2018-02-14T03:00:13.874Z,995
2018-02-14T03:00:34.140Z,995
2018-02-14T03:00:54.439Z,995
2018-02-14T03:01:14.747Z,995
2018-02-14T03:01:34.983Z,995
2018-02-14T03:01:55.212Z,995
2018-02-14T03:02:15.462Z,995
2018-02-14T03:02:35.749Z,995
2018-02-14T03:02:56.087Z,995
2018-02-14T03:03:16.354Z,995
2018-02-14T03:03:36.599Z,995
2018-02-14T03:03:56.859Z,995
2018-02-14T03:04:17.065Z,995
2018-02-14T03:04:37.333Z,995
2018-02-14T03:04:57.628Z,995
2018-02-14T03:05:17.962Z,995.1
2018-02-14T03:05:38.230Z,995.1
2018-02-14T03:05:58.507Z,995
2018-02-14T03:06:18.777Z,995
2018-02-14T03:06:39.018Z,995.1
2018-02-14T03:06:59.218Z,995.1
2018-02-14T03:07:19.554Z,995.1
2018-02-14T03:07:39.827Z,995.1
2018-02-14T03:08:00.115Z,995.1
2018-02-14T03:08:20.415Z,995.1
2018-02-14T03:08:40.687Z,995.1
2018-02-14T03:09:00.929Z,995.1
2018-02-14T03:09:21.254Z,995.1
2018-02-14T03:09:41.550Z,995.1
2018-02-14T03:10:01.792Z,995.1
2018-02-14T03:10:22.057Z,995.1
2018-02-14T03:10:42.344Z,995.1
2018-02-14T03:11:02.641Z,995.1
2018-02-14T03:11:22.965Z,995.1
2018-02-14T03:11:43.277Z,995.1
2018-02-14T03:12:03.514Z,995.1
2018-02-14T03:12:23.737Z,995.1
2018-02-14T03:12:44.049Z,995.1
2018-02-14T03:13:04.336Z,995.1
2018-02-14T03:13:24.556Z,995.1
2018-02-14T03:13:44.834Z,995.1
2018-02-14T03:14:05.138Z,995.1
2018-02-14T03:14:25.392Z,995.1
2018-02-14T03:14:45.646Z,995.1
2018-02-14T03:15:05.885Z,995.1
2018-02-14T03:15:26.131Z,995
2018-02-14T03:15:46.417Z,995.1
2018-02-14T03:16:06.765Z,995.1
2018-02-14T03:16:27.038Z,995.1
2018-02-14T03:16:47.277Z,995.1
2018-02-14T03:17:07.592Z,995.1
2018-02-14T03:17:27.862Z,995.1
2018-02-14T03:17:48.176Z,995.1
2018-02-14T03:18:08.438Z,995.1
2018-02-14T03:18:28.686Z,995.1
2018-02-14T03:18:48.895Z,995.1
2018-02-14T03:19:09.196Z,995.1
2018-02-14T03:19:29.474Z,995.1
2018-02-14T03:19:49.766Z,995.1
2018-02-14T03:20:10.022Z,995.1
2018-02-14T03:20:30.350Z,995.1
2018-02-14T03:20:50.638Z,995.1
2018-02-14T03:21:10.992Z,995.1
2018-02-14T03:21:31.272Z,995.1
2018-02-14T03:21:51.448Z,995.1
2018-02-14T03:22:11.697Z,995.1
2018-02-14T03:22:31.979Z,995.1
2018-02-14T03:22:52.276Z,995.1
2018-02-14T03:23:12.492Z,995.1
2018-02-14T03:23:32.769Z,995.1
2018-02-14T03:23:52.987Z,995.1
2018-02-14T03:24:13.215Z,995.1
2018-02-14T03:24:33.452Z,995.1
2018-02-14T03:24:53.698Z,995.1
2018-02-14T03:25:14.053Z,995.1
2018-02-14T03:25:34.240Z,995.1
2018-02-14T03:25:54.459Z,995.1
2018-02-14T03:26:14.752Z,995.2
2018-02-14T03:26:35.036Z,995.1
2018-02-14T03:26:55.314Z,995.1
2018-02-14T03:27:15.548Z,995.1
2018-02-14T03:27:35.792Z,995.2
2018-02-14T03:27:56.115Z,995.2
2018-02-14T03:28:16.354Z,995.1
2018-02-14T03:28:36.638Z,995.2
2018-02-14T03:28:56.942Z,995.2
2018-02-14T03:29:17.235Z,995.2
2018-02-14T03:29:37.532Z,995.2
2018-02-14T03:29:57.804Z,995.2
2018-02-14T03:30:18.082Z,995.2
2018-02-14T03:30:38.373Z,995.2
2018-02-14T03:30:58.653Z,995.2
2018-02-14T03:31:18.889Z,995.2
2018-02-14T03:31:39.135Z,995.2
2018-02-14T03:31:59.371Z,995.2
2018-02-14T03:32:19.601Z,995.3
2018-02-14T03:32:39.846Z,995.2
2018-02-14T03:33:00.120Z,995.2
2018-02-14T03:33:20.414Z,995.2
2018-02-14T03:33:40.777Z,995.3
2018-02-14T03:34:01.053Z,995.3
2018-02-14T03:34:21.332Z,995.3
2018-02-14T03:34:41.549Z,995.3
2018-02-14T03:35:01.772Z,995.3
2018-02-14T03:35:22.062Z,995.3
2018-02-14T03:35:42.320Z,995.3
2018-02-14T03:36:02.582Z,995.3
2018-02-14T03:36:22.890Z,995.3
2018-02-14T03:36:43.147Z,995.3
2018-02-14T03:37:03.362Z,995.3
2018-02-14T03:37:23.607Z,995.3
2018-02-14T03:37:43.838Z,995.3
2018-02-14T03:38:04.156Z,995.3
2018-02-14T03:38:24.396Z,995.3
2018-02-14T03:38:44.684Z,995.3
2018-02-14T03:39:05.249Z,995.4
2018-02-14T03:39:25.465Z,995.4
2018-02-14T03:39:45.741Z,995.3
2018-02-14T03:40:06.044Z,995.3
2018-02-14T03:40:26.289Z,995.3
2018-02-14T03:40:46.554Z,995.3
2018-02-14T03:41:06.839Z,995.3
2018-02-14T03:41:27.154Z,995.3
2018-02-14T03:41:47.419Z,995.3
2018-02-14T03:42:07.662Z,995.3
2018-02-14T03:42:27.865Z,995.3
2018-02-14T03:42:48.142Z,995.3
2018-02-14T03:43:08.411Z,995.3
2018-02-14T03:43:28.737Z,995.4
2018-02-14T03:43:49.060Z,995.3
2018-02-14T03:44:09.370Z,995.4
2018-02-14T03:44:29.639Z,995.4
2018-02-14T03:44:49.928Z,995.4
2018-02-14T03:45:10.207Z,995.3
2018-02-14T03:45:30.478Z,995.4
2018-02-14T03:45:50.789Z,995.4
2018-02-14T03:46:11.057Z,995.4
2018-02-14T03:46:31.307Z,995.4
2018-02-14T03:46:51.523Z,995.4
2018-02-14T03:47:11.782Z,995.4
2018-02-14T03:47:32.032Z,995.4
2018-02-14T03:47:52.340Z,995.4
2018-02-14T03:48:12.574Z,995.4
2018-02-14T03:48:32.896Z,995.4
2018-02-14T03:48:53.154Z,995.4
2018-02-14T03:49:13.370Z,995.4
2018-02-14T03:49:33.648Z,995.4
2018-02-14T03:49:53.936Z,995.4
2018-02-14T03:50:14.144Z,995.4
2018-02-14T03:50:34.359Z,995.4
2018-02-14T03:50:54.568Z,995.4
2018-02-14T03:51:14.840Z,995.4
2018-02-14T03:51:35.108Z,995.4
2018-02-14T03:51:55.366Z,995.5
2018-02-14T03:52:15.625Z,995.5
2018-02-14T03:52:35.898Z,995.4
2018-02-14T03:52:56.188Z,995.4
2018-02-14T03:53:16.470Z,995.5
2018-02-14T03:53:36.722Z,995.5
2018-02-14T03:53:56.976Z,995.4
2018-02-14T03:54:17.241Z,995.5
2018-02-14T03:54:37.622Z,995.5
2018-02-14T03:54:57.855Z,995.5
2018-02-14T03:55:18.132Z,995.5
2018-02-14T03:55:38.353Z,995.5
2018-02-14T03:55:58.621Z,995.5
2018-02-14T03:56:18.939Z,995.5
2018-02-14T03:56:39.185Z,995.5
2018-02-14T03:56:59.411Z,995.5
2018-02-14T03:57:19.614Z,995.5
2018-02-14T03:57:39.840Z,995.5
2018-02-14T03:58:00.053Z,995.5
2018-02-14T03:58:20.270Z,995.5
2018-02-14T03:58:40.528Z,995.5
2018-02-14T03:59:00.774Z,995.5
2018-02-14T03:59:20.996Z,995.5
2018-02-14T03:59:41.326Z,995.5
2018-02-14T04:00:01.655Z,995.5
2018-02-14T04:00:22.030Z,995.5
2018-02-14T04:00:42.265Z,995.5
2018-02-14T04:01:02.590Z,995.5
2018-02-14T04:01:22.836Z,995.5
2018-02-14T04:01:43.111Z,995.5
2018-02-14T04:02:03.396Z,995.5
2018-02-14T04:02:23.738Z,995.5
2018-02-14T04:02:44.051Z,995.5
2018-02-14T04:03:04.257Z,995.5
2018-02-14T04:03:24.508Z,995.5
2018-02-14T04:03:44.709Z,995.5
2018-02-14T04:04:05.861Z,995.5
2018-02-14T04:04:26.097Z,995.5
2018-02-14T04:04:46.371Z,995.5
2018-02-14T04:05:06.656Z,995.5
2018-02-14T04:05:26.909Z,995.5
2018-02-14T04:05:47.124Z,995.5
2018-02-14T04:06:07.388Z,995.5
2018-02-14T04:06:27.673Z,995.5
2018-02-14T04:06:47.900Z,995.5
2018-02-14T04:07:08.180Z,995.5
2018-02-14T04:07:28.463Z,995.5
2018-02-14T04:07:48.759Z,995.5
2018-02-14T04:08:09.672Z,995.6
2018-02-14T04:08:29.981Z,995.6
2018-02-14T04:08:50.212Z,995.6
2018-02-14T04:09:10.586Z,995.6
2018-02-14T04:09:30.821Z,995.5
2018-02-14T04:09:51.079Z,995.6
2018-02-14T04:10:11.346Z,995.6
2018-02-14T04:10:31.662Z,995.6
2018-02-14T04:10:51.891Z,995.5
2018-02-14T04:11:12.251Z,995.6
2018-02-14T04:11:32.460Z,995.6
2018-02-14T04:11:52.714Z,995.6
2018-02-14T04:12:13.016Z,995.6
2018-02-14T04:12:33.445Z,995.6
2018-02-14T04:12:53.764Z,995.6
2018-02-14T04:13:14.043Z,995.6
2018-02-14T04:13:34.331Z,995.6
2018-02-14T04:13:54.545Z,995.6
2018-02-14T04:14:14.869Z,995.7
2018-02-14T04:14:35.141Z,995.7
2018-02-14T04:14:55.396Z,995.7
2018-02-14T04:15:16.621Z,995.7
2018-02-14T04:15:36.934Z,995.7
2018-02-14T04:15:57.251Z,995.7
2018-02-14T04:16:17.588Z,995.7
2018-02-14T04:16:37.845Z,995.7
2018-02-14T04:16:58.122Z,995.7
2018-02-14T04:17:18.501Z,995.7
2018-02-14T04:17:38.783Z,995.7
2018-02-14T04:17:59.060Z,995.7
2018-02-14T04:18:19.329Z,995.7
2018-02-14T04:18:39.538Z,995.6
2018-02-14T04:18:59.786Z,995.7
2018-02-14T04:19:20.079Z,995.7
2018-02-14T04:19:40.302Z,995.7
2018-02-14T04:20:00.604Z,995.7
2018-02-14T04:20:20.855Z,995.7
2018-02-14T04:20:41.128Z,995.7
2018-02-14T04:21:01.390Z,995.7
2018-02-14T04:21:21.616Z,995.7
2018-02-14T04:21:41.899Z,995.7
2018-02-14T04:22:02.122Z,995.7
2018-02-14T04:22:22.369Z,995.7
2018-02-14T04:22:42.663Z,995.7
2018-02-14T04:23:02.917Z,995.7
2018-02-14T04:23:23.203Z,995.7
2018-02-14T04:23:43.480Z,995.8
2018-02-14T04:24:03.769Z,995.7
2018-02-14T04:24:24.026Z,995.7
2018-02-14T04:24:44.280Z,995.7
2018-02-14T04:25:04.550Z,995.7